createdAt,value
2023-01-29T00:03:45.708Z,98202.22
2023-01-29T00:08:47.405Z,98184.75
2023-01-29T00:13:50.558Z,98181.19
2023-01-29T00:18:52.671Z,98190.03
2023-01-29T00:23:55.205Z,98190.09
2023-01-29T00:28:57.515Z,98188.03
2023-01-29T00:33:59.228Z,98182.69
2023-01-29T00:39:02.536Z,98175.06
2023-01-29T00:44:24.183Z,98176.16
2023-01-29T00:49:26.589Z,98180.38
2023-01-29T00:54:28.409Z,98180.25
2023-01-29T00:59:30.586Z,98177.88
2023-01-29T01:04:34.134Z,98182.41
2023-01-29T01:09:55.986Z,98171.16
2023-01-29T01:14:58.026Z,98173.97
2023-01-29T01:19:59.776Z,98178.72
2023-01-29T01:25:01.553Z,98170.97
2023-01-29T01:30:04.545Z,98172.13
2023-01-29T01:35:06.654Z,98172.53
2023-01-29T01:40:19.421Z,98157.63
2023-01-29T01:45:27.349Z,98163.94
2023-01-29T01:50:42.676Z,98167.66
2023-01-29T01:55:55.951Z,98158.53
2023-01-29T02:00:58.813Z,98156.09
2023-01-29T02:06:19.361Z,98148.63
2023-01-29T02:11:21.550Z,98155.06
2023-01-29T02:16:23.867Z,98148.63
2023-01-29T02:21:45.317Z,98145.91
2023-01-29T02:26:54.735Z,98150.13
2023-01-29T02:32:14.278Z,98149.47
2023-01-29T02:37:16.126Z,98154.88
2023-01-29T02:42:44.392Z,98162.28
2023-01-29T02:47:58.721Z,98160.72
2023-01-29T02:53:07.858Z,98160.06
2023-01-29T02:58:33.046Z,98165.00
2023-01-29T03:03:41.245Z,98161.72
2023-01-29T03:08:50.049Z,98155.75
2023-01-29T03:13:51.799Z,98160.06
2023-01-29T03:19:12.503Z,98158.97
2023-01-29T03:24:36.213Z,98165.44
2023-01-29T03:29:58.490Z,98162.38
2023-01-29T03:35:13.023Z,98170.31
2023-01-29T03:40:16.391Z,98152.06
2023-01-29T03:45:43.178Z,98160.72
2023-01-29T03:51:00.531Z,98167.31
2023-01-29T03:56:11.434Z,98162.06
2023-01-29T04:01:39.443Z,98167.34
2023-01-29T04:06:45.816Z,98169.25
2023-01-29T04:12:10.857Z,98168.72
2023-01-29T04:17:20.628Z,98175.03
2023-01-29T04:22:39.499Z,98175.69
2023-01-29T04:28:12.584Z,98167.31
2023-01-29T04:33:33.153Z,98176.91
2023-01-29T04:38:53.109Z,98172.16
2023-01-29T04:44:00.911Z,98165.09
2023-01-29T04:49:14.691Z,98169.47
2023-01-29T04:54:32.680Z,98183.41
2023-01-29T04:59:41.199Z,98178.97
2023-01-29T05:04:46.026Z,98177.75
2023-01-29T05:09:49.496Z,98190.56
2023-01-29T05:14:53.074Z,98191.41
2023-01-29T05:19:56.626Z,98185.81
2023-01-29T05:24:58.246Z,98187.13
2023-01-29T05:30:00.349Z,98199.94
2023-01-29T05:35:02.042Z,98179.69
2023-01-29T05:40:03.961Z,98178.97
2023-01-29T05:45:06.674Z,98169.28
2023-01-29T05:50:09.242Z,98171.41
2023-01-29T05:55:11.140Z,98177.16
2023-01-29T06:00:13.562Z,98164.06
2023-01-29T06:05:15.387Z,98166.00
2023-01-29T06:10:18.850Z,98167.97
2023-01-29T06:15:21.159Z,98178.38
2023-01-29T06:20:23.596Z,98184.16
2023-01-29T06:25:25.255Z,98170.47
2023-01-29T06:30:28.412Z,98174.84
2023-01-29T06:35:30.190Z,98160.50
2023-01-29T06:40:31.809Z,98170.09
2023-01-29T06:45:33.495Z,98156.59
2023-01-29T06:50:35.375Z,98132.59
2023-01-29T06:55:37.053Z,98134.63
2023-01-29T07:00:39.062Z,98142.19
2023-01-29T07:05:41.212Z,98145.56
2023-01-29T07:10:43.453Z,98154.78
2023-01-29T07:15:45.112Z,98166.75
2023-01-29T07:20:46.735Z,98167.88
2023-01-29T07:25:49.860Z,98170.59
2023-01-29T07:30:56.555Z,98176.53
2023-01-29T07:35:58.304Z,98181.19
2023-01-29T07:41:01.306Z,98177.16
2023-01-29T07:46:04.577Z,98168.25
2023-01-29T07:51:06.598Z,98165.91
2023-01-29T07:56:08.333Z,98173.19
2023-01-29T08:01:10.177Z,98188.34
2023-01-29T08:06:11.901Z,98184.72
2023-01-29T08:11:13.546Z,98195.50
2023-01-29T08:16:15.609Z,98188.59
2023-01-29T08:21:17.359Z,98205.81
2023-01-29T08:26:19.118Z,98209.72
2023-01-29T08:31:21.127Z,98216.03
2023-01-29T08:36:23.053Z,98224.75
2023-01-29T08:41:24.848Z,98224.19
2023-01-29T08:46:26.546Z,98237.63
2023-01-29T08:51:28.958Z,98231.66
2023-01-29T08:56:30.595Z,98226.16
2023-01-29T09:01:32.280Z,98230.94
2023-01-29T09:06:34.463Z,98235.94
2023-01-29T09:11:36.191Z,98242.34
2023-01-29T09:16:38.032Z,98243.75
2023-01-29T09:21:39.742Z,98253.81
2023-01-29T09:26:41.393Z,98260.03
2023-01-29T09:31:43.190Z,98260.31
2023-01-29T09:36:44.955Z,98259.94
2023-01-29T09:42:01.565Z,98252.25
2023-01-29T09:47:07.203Z,98249.63
2023-01-29T09:52:18.588Z,98245.91
2023-01-29T09:57:31.890Z,98255.56
2023-01-29T10:03:11.177Z,98252.06
2023-01-29T10:08:24.853Z,98235.78
2023-01-29T10:13:26.595Z,98241.28
2023-01-29T10:18:31.049Z,98230.19
2023-01-29T10:23:42.580Z,98220.91
2023-01-29T10:28:48.364Z,98219.78
2023-01-29T10:34:02.120Z,98218.28
2023-01-29T10:39:04.502Z,98211.31
2023-01-29T10:44:30.988Z,98202.47
2023-01-29T10:49:54.529Z,98203.03
2023-01-29T10:55:15.895Z,98190.66
2023-01-29T11:00:39.216Z,98180.41
2023-01-29T11:06:08.271Z,98173.78
2023-01-29T11:11:18.040Z,98178.63
2023-01-29T11:16:19.797Z,98168.59
2023-01-29T11:21:23.038Z,98149.50
2023-01-29T11:26:24.897Z,98136.25
2023-01-29T11:31:37.085Z,98123.41
2023-01-29T11:36:39.738Z,98137.38
2023-01-29T11:41:49.407Z,98124.94
2023-01-29T11:46:51.226Z,98120.28
2023-01-29T11:51:55.910Z,98136.38
2023-01-29T11:56:58.522Z,98135.97
2023-01-29T12:02:21.328Z,98127.91
2023-01-29T12:07:23.173Z,98114.91
2023-01-29T12:12:38.021Z,98105.50
2023-01-29T12:17:43.460Z,98098.00
2023-01-29T12:23:22.164Z,98087.44
2023-01-29T12:28:31.551Z,98079.44
2023-01-29T12:34:01.865Z,98071.19
2023-01-29T12:39:03.792Z,98061.16
2023-01-29T12:44:14.487Z,98046.91
2023-01-29T12:49:22.979Z,98031.03
2023-01-29T12:54:50.048Z,98032.09
2023-01-29T12:59:58.968Z,98035.38
2023-01-29T13:05:23.071Z,98038.28
2023-01-29T13:10:32.622Z,98045.13
2023-01-29T13:15:40.720Z,98035.34
2023-01-29T13:20:43.485Z,98022.75
2023-01-29T13:25:45.051Z,98024.03
2023-01-29T13:30:47.505Z,98009.25
2023-01-29T13:35:58.875Z,98013.78
2023-01-29T13:41:04.404Z,97999.34
2023-01-29T13:46:10.028Z,98005.69
2023-01-29T13:51:20.064Z,97997.88
2023-01-29T13:56:44.852Z,97988.72
2023-01-29T14:01:46.521Z,97993.66
2023-01-29T14:07:28.425Z,97998.09
2023-01-29T14:12:37.354Z,98000.66
2023-01-29T14:17:40.213Z,98008.28
2023-01-29T14:22:43.090Z,98014.53
2023-01-29T14:27:49.005Z,98012.16
2023-01-29T14:32:51.629Z,98008.75
2023-01-29T14:37:56.003Z,97988.81
2023-01-29T14:43:02.845Z,97984.97
2023-01-29T14:48:11.165Z,97991.41
2023-01-29T14:53:24.105Z,97988.06
2023-01-29T14:58:58.010Z,97992.69
2023-01-29T15:04:14.545Z,97989.53
2023-01-29T15:09:42.316Z,97999.88
2023-01-29T15:15:15.256Z,97988.84
2023-01-29T15:20:31.350Z,97977.53
2023-01-29T15:25:37.801Z,97972.94
2023-01-29T15:30:39.742Z,97973.81
2023-01-29T15:35:42.490Z,97974.88
2023-01-29T15:41:00.437Z,97976.09
2023-01-29T15:46:06.541Z,97985.25
2023-01-29T15:51:11.969Z,97982.47
2023-01-29T15:56:18.575Z,97973.34
2023-01-29T16:01:20.530Z,97969.16
2023-01-29T16:06:23.526Z,97965.97
2023-01-29T16:11:25.572Z,97958.31
2023-01-29T16:16:28.082Z,97964.19
2023-01-29T16:21:40.665Z,97965.88
2023-01-29T16:26:45.278Z,97966.22
2023-01-29T16:31:50.753Z,97966.53
2023-01-29T16:36:54.685Z,97970.69
2023-01-29T16:42:29.698Z,97974.03
2023-01-29T16:47:41.452Z,97978.59
2023-01-29T16:53:00.394Z,97983.44
2023-01-29T16:58:13.400Z,97987.75
2023-01-29T17:03:17.200Z,97989.97
2023-01-29T17:08:34.120Z,97984.84
2023-01-29T17:13:42.860Z,97996.41
2023-01-29T17:18:44.506Z,97994.97
2023-01-29T17:23:46.308Z,97996.16
2023-01-29T17:28:52.262Z,98002.69
2023-01-29T17:33:53.943Z,97997.41
2023-01-29T17:38:55.645Z,97999.09
2023-01-29T17:43:57.324Z,98000.47
2023-01-29T17:48:59.128Z,97998.06
2023-01-29T17:54:00.927Z,97988.59
2023-01-29T17:59:02.619Z,97999.53
2023-01-29T18:04:05.276Z,97989.19
2023-01-29T18:09:07.548Z,97997.19
2023-01-29T18:14:13.982Z,97988.81
2023-01-29T18:19:21.371Z,97983.94
2023-01-29T18:24:23.545Z,97978.53
2023-01-29T18:29:29.938Z,97990.47
2023-01-29T18:34:31.629Z,97994.72
2023-01-29T18:39:51.540Z,97991.09
2023-01-29T18:44:53.258Z,97994.47
2023-01-29T18:49:55.150Z,97991.78
2023-01-29T18:54:58.027Z,97984.56
2023-01-29T18:59:59.777Z,97991.63
2023-01-29T19:05:01.814Z,97975.06
2023-01-29T19:10:06.778Z,97978.34
2023-01-29T19:15:10.067Z,97968.97
2023-01-29T19:20:12.256Z,97963.75
2023-01-29T19:25:14.085Z,97960.69
2023-01-29T19:30:16.078Z,97955.88
2023-01-29T19:35:18.135Z,97950.09
2023-01-29T19:40:20.995Z,97949.38
2023-01-29T19:45:37.060Z,97953.66
2023-01-29T19:50:52.946Z,97958.63
2023-01-29T19:56:03.059Z,97962.31
2023-01-29T20:01:07.726Z,97970.41
2023-01-29T20:06:09.612Z,97966.28
2023-01-29T20:11:13.096Z,97958.44
2023-01-29T20:16:14.897Z,97965.59
2023-01-29T20:21:20.485Z,97972.19
2023-01-29T20:26:22.726Z,97975.84
2023-01-29T20:31:24.612Z,97967.28
2023-01-29T20:36:26.329Z,97967.22
2023-01-29T20:41:28.920Z,97969.53
2023-01-29T20:46:30.575Z,97967.03
2023-01-29T20:51:32.368Z,97966.00
2023-01-29T20:56:41.023Z,97957.38
2023-01-29T21:01:48.328Z,97940.56
2023-01-29T21:06:50.100Z,97927.47
2023-01-29T21:11:51.910Z,97932.88
2023-01-29T21:16:53.805Z,97933.34
2023-01-29T21:21:57.872Z,97927.56
2023-01-29T21:26:59.792Z,97912.22
2023-01-29T21:32:01.675Z,97903.50
2023-01-29T21:37:03.353Z,97898.09
2023-01-29T21:42:23.890Z,97887.72
2023-01-29T21:47:25.619Z,97869.03
2023-01-29T21:52:27.338Z,97876.00
2023-01-29T21:57:28.970Z,97872.69
2023-01-29T22:02:32.071Z,97871.84
2023-01-29T22:07:34.470Z,97868.97
2023-01-29T22:12:36.524Z,97880.78
2023-01-29T22:17:41.204Z,97881.34
2023-01-29T22:22:43.121Z,97873.88
2023-01-29T22:27:44.763Z,97863.47
2023-01-29T22:32:46.427Z,97864.53
2023-01-29T22:37:48.110Z,97866.56
2023-01-29T22:42:50.077Z,97868.16
2023-01-29T22:47:51.836Z,97859.81
2023-01-29T22:52:54.250Z,97869.00
2023-01-29T22:57:56.089Z,97865.94
2023-01-29T23:02:57.812Z,97849.03
2023-01-29T23:07:59.541Z,97840.19
2023-01-29T23:13:01.240Z,97841.03
2023-01-29T23:18:03.412Z,97832.25
2023-01-29T23:23:05.129Z,97824.72
2023-01-29T23:28:06.865Z,97821.09
2023-01-29T23:33:11.875Z,97807.59
2023-01-29T23:38:13.872Z,97794.13
2023-01-29T23:43:15.568Z,97800.13
2023-01-29T23:48:17.253Z,97791.06
2023-01-29T23:53:18.940Z,97782.50
2023-01-29T23:58:20.591Z,97779.72
